Time;durP1;ratioP1;P1;durP2;ratioP2;P2;SDS_P1;SDS_P2;PMS_P1;PMS_P2;Temp;Humidity;BMP_temperature;BMP_pressure;BME280_temperature;BME280_humidity;BME280_pressure;Samples;Min_cycle;Max_cycle;Signal;HPM_P1;HPM_P2
2023/05/12 00:04:50;;;;;;;15.82;6.22;;;;;;;14.75;80.32;100073.00;10426818;28;20077;-59
2023/05/12 00:09:52;;;;;;;14.65;5.47;;;;;;;14.74;80.30;100076.72;10423581;28;20085;-61
2023/05/12 00:14:54;;;;;;;10.90;4.78;;;;;;;14.78;80.16;100075.28;10429111;28;20237;-63
2023/05/12 00:19:55;;;;;;;9.38;4.43;;;;;;;14.78;80.33;100075.28;10424773;28;20140;-60
2023/05/12 00:24:56;;;;;;;7.90;4.03;;;;;;;14.76;80.21;100074.66;10424115;28;20053;-60
2023/05/12 00:29:58;;;;;;;7.38;3.65;;;;;;;14.70;80.44;100075.50;10422656;28;20133;-61
2023/05/12 00:34:59;;;;;;;6.93;3.50;;;;;;;14.72;80.42;100069.88;10424366;28;20062;-59
2023/05/12 00:40:00;;;;;;;7.05;3.38;;;;;;;14.73;80.31;100069.69;10411725;28;20446;-61
2023/05/12 00:45:03;;;;;;;6.00;3.20;;;;;;;14.80;80.08;100065.06;10427281;28;20429;-61
2023/05/12 00:50:05;;;;;;;6.13;3.03;;;;;;;14.77;80.27;100057.38;10424299;28;20053;-62
2023/05/12 00:55:07;;;;;;;7.65;3.85;;;;;;;14.77;80.20;100057.38;10423055;28;20049;-62
2023/05/12 01:00:10;;;;;;;8.35;3.85;;;;;;;14.80;80.15;100054.25;10420550;28;20406;-68
2023/05/12 01:05:12;;;;;;;8.93;3.67;;;;;;;14.93;79.75;100066.06;10421224;28;20127;-60
2023/05/12 01:10:18;;;;;;;10.05;5.22;;;;;;;14.89;80.01;100057.56;10423129;28;20180;-61
2023/05/12 01:15:20;;;;;;;13.10;6.03;;;;;;;14.98;79.88;100063.59;10422612;28;20048;-60
2023/05/12 01:20:25;;;;;;;18.90;8.73;;;;;;;14.84;80.29;100060.91;10423029;28;20836;-61
2023/05/12 01:25:30;;;;;;;23.67;10.55;;;;;;;14.79;80.36;100067.97;10421779;28;20045;-61
2023/05/12 01:30:33;;;;;;;27.55;10.50;;;;;;;14.83;80.21;100067.38;10425643;28;20131;-61
2023/05/12 01:35:34;;;;;;;22.08;9.57;;;;;;;14.78;80.25;100072.56;10418715;28;20441;-61
2023/05/12 01:40:36;;;;;;;22.67;7.10;;;;;;;14.64;80.39;100069.03;10419497;28;20067;-59
2023/05/12 01:45:37;;;;;;;6.15;2.72;;;;;;;14.36;81.37;100069.25;10418169;28;20619;-61
2023/05/12 01:50:41;;;;;;;6.20;1.30;;;;;;;14.16;81.69;100087.28;10411254;28;20111;-59
2023/05/12 01:55:42;;;;;;;4.00;1.00;;;;;;;14.12;81.60;100102.28;10412991;28;20053;-60
2023/05/12 02:00:43;;;;;;;3.13;0.70;;;;;;;14.10;81.50;100105.19;10418837;28;20558;-59
2023/05/12 02:05:45;;;;;;;1.70;0.70;;;;;;;14.09;81.12;100120.56;10390735;28;20132;-61
2023/05/12 02:10:46;;;;;;;1.90;0.73;;;;;;;14.10;81.07;100132.22;10419894;28;20119;-60
2023/05/12 02:15:48;;;;;;;2.53;1.00;;;;;;;14.04;81.18;100122.22;10418839;28;20081;-60
2023/05/12 02:20:49;;;;;;;2.22;1.13;;;;;;;13.97;81.04;100119.50;10417681;28;20040;-61
2023/05/12 02:25:51;;;;;;;2.72;1.55;;;;;;;13.82;81.82;100127.78;10426124;28;20116;-59
2023/05/12 02:30:53;;;;;;;1.77;1.38;;;;;;;13.79;81.72;100130.88;10424346;28;20149;-59
2023/05/12 02:35:54;;;;;;;4.20;1.80;;;;;;;13.78;81.70;100133.78;10421432;28;20107;-61
2023/05/12 02:40:56;;;;;;;3.10;2.05;;;;;;;13.79;81.64;100140.88;10417060;28;20503;-61
2023/05/12 02:45:57;;;;;;;4.50;2.53;;;;;;;13.82;81.39;100135.03;10413123;28;20496;-59
2023/05/12 02:50:59;;;;;;;2.10;1.60;;;;;;;13.75;81.32;100129.63;10420096;28;20783;-61
2023/05/12 02:56:00;;;;;;;1.98;1.15;;;;;;;13.81;81.20;100138.78;10421553;28;20103;-60
2023/05/12 03:01:02;;;;;;;2.58;0.90;;;;;;;13.87;80.96;100138.81;10414899;28;20076;-61
2023/05/12 03:06:11;;;;;;;1.75;1.00;;;;;;;13.88;80.88;100145.88;10416015;28;20052;-61
2023/05/12 03:11:13;;;;;;;6.40;2.58;;;;;;;13.95;80.54;100143.19;10422266;28;20103;-60
2023/05/12 03:16:16;;;;;;;3.55;2.45;;;;;;;13.95;80.67;100140.50;10419994;28;20061;-60
2023/05/12 03:21:19;;;;;;;4.07;2.40;;;;;;;14.01;80.51;100144.25;10431031;28;20147;-61
2023/05/12 03:26:21;;;;;;;2.95;2.03;;;;;;;14.16;79.84;100155.75;10428830;28;20123;-60
2023/05/12 03:31:22;;;;;;;3.40;2.72;;;;;;;14.18;80.15;100150.97;10428600;28;20136;-60
2023/05/12 03:36:24;;;;;;;3.33;2.85;;;;;;;14.20;80.08;100151.59;10429134;28;20436;-60
2023/05/12 03:41:25;;;;;;;8.18;5.40;;;;;;;14.20;80.05;100145.34;10425764;28;20826;-68
2023/05/12 03:46:27;;;;;;;7.40;4.68;;;;;;;14.27;79.75;100141.59;10426967;28;20070;-63
2023/05/12 03:51:29;;;;;;;8.68;5.22;;;;;;;14.31;79.86;100127.69;10424738;28;20041;-64
2023/05/12 03:56:30;;;;;;;14.23;5.22;;;;;;;14.27;79.75;100132.66;10421324;28;20072;-65
2023/05/12 04:01:32;;;;;;;9.50;4.97;;;;;;;14.30;79.83;100137.66;10422173;28;20083;-63
2023/05/12 04:06:35;;;;;;;10.85;4.90;;;;;;;14.21;80.06;100139.72;10427439;28;20396;-65
2023/05/12 04:11:36;;;;;;;11.20;5.15;;;;;;;14.21;79.88;100149.72;10424123;28;20053;-64
2023/05/12 04:16:39;;;;;;;10.70;5.60;;;;;;;14.24;80.22;100152.00;10431274;28;20041;-64
2023/05/12 04:21:41;;;;;;;7.40;5.05;;;;;;;14.23;80.32;100161.16;10428268;28;20054;-64
2023/05/12 04:26:42;;;;;;;8.15;4.60;;;;;;;14.23;80.21;100156.56;10424642;28;20080;-62
2023/05/12 04:31:43;;;;;;;6.13;4.03;;;;;;;14.26;80.36;100161.56;10420231;28;20057;-64
2023/05/12 04:36:45;;;;;;;7.07;4.05;;;;;;;14.25;80.20;100165.31;10421444;28;20045;-67
2023/05/12 04:41:46;;;;;;;8.80;4.68;;;;;;;14.32;80.26;100168.03;10421985;28;20116;-68
2023/05/12 04:46:49;;;;;;;3.88;3.22;;;;;;;14.36;80.38;100174.69;10426322;28;20060;-66
2023/05/12 04:51:50;;;;;;;8.45;3.95;;;;;;;14.38;80.19;100180.75;10421134;28;20211;-67
2023/05/12 04:56:52;;;;;;;5.38;3.80;;;;;;;14.42;80.31;100173.88;10426407;28;20091;-67
2023/05/12 05:01:53;;;;;;;5.82;4.20;;;;;;;14.49;80.08;100187.41;10424729;28;20076;-67
2023/05/12 05:06:55;;;;;;;8.20;4.13;;;;;;;14.51;80.08;100198.03;10420789;28;20061;-66
2023/05/12 05:11:56;;;;;;;9.80;4.72;;;;;;;14.53;80.03;100198.66;10416942;28;20045;-66
2023/05/12 05:16:58;;;;;;;12.25;4.18;;;;;;;14.47;80.18;100203.84;10422515;28;20103;-66
2023/05/12 05:22:00;;;;;;;4.88;3.63;;;;;;;14.50;80.11;100205.31;10402248;28;20087;-68
2023/05/12 05:27:01;;;;;;;4.47;4.07;;;;;;;14.52;79.95;100213.22;10419416;28;20077;-66
2023/05/12 05:32:03;;;;;;;7.55;4.47;;;;;;;14.54;79.79;100211.97;10418200;28;20073;-68
2023/05/12 05:37:04;;;;;;;5.10;3.80;;;;;;;14.51;79.68;100220.47;10421644;28;20455;-66
2023/05/12 05:42:06;;;;;;;6.93;4.18;;;;;;;14.47;79.66;100224.63;10422284;28;20103;-69
2023/05/12 05:47:07;;;;;;;4.75;3.85;;;;;;;14.55;79.53;100226.31;10416495;28;20111;-68
2023/05/12 05:52:09;;;;;;;4.75;3.33;;;;;;;14.58;79.67;100223.25;10415995;28;20057;-68
2023/05/12 05:57:10;;;;;;;5.80;3.92;;;;;;;14.61;79.33;100231.78;10414087;28;20047;-67
2023/05/12 06:02:12;;;;;;;5.63;3.47;;;;;;;14.70;79.36;100229.72;10414751;28;20423;-67
2023/05/12 06:07:13;;;;;;;5.47;3.50;;;;;;;14.72;79.27;100237.63;10413740;28;20129;-67
2023/05/12 06:12:14;;;;;;;5.18;3.80;;;;;;;14.87;79.04;100249.09;10421184;28;20072;-67
2023/05/12 06:17:16;;;;;;;5.00;3.60;;;;;;;14.95;79.17;100261.56;10422567;28;20102;-68
2023/05/12 06:22:18;;;;;;;5.70;3.70;;;;;;;15.04;78.79;100263.06;10416807;28;20085;-67
2023/05/12 06:27:19;;;;;;;7.95;3.35;;;;;;;15.05;78.86;100272.84;10418689;28;20649;-68
2023/05/12 06:32:20;;;;;;;3.38;3.08;;;;;;;15.03;78.80;100264.09;10420832;28;20083;-69
2023/05/12 06:37:22;;;;;;;5.10;4.18;;;;;;;15.00;78.86;100273.47;10418313;28;20134;-68
2023/05/12 06:42:23;;;;;;;4.63;3.80;;;;;;;15.06;78.86;100260.97;10418354;28;20051;-66
2023/05/12 06:47:25;;;;;;;6.13;3.03;;;;;;;15.15;78.60;100273.28;10415936;28;20163;-67
2023/05/12 06:52:26;;;;;;;6.00;3.22;;;;;;;15.38;78.42;100267.44;10403888;28;20511;-65
2023/05/12 06:57:28;;;;;;;3.63;2.47;;;;;;;15.55;78.52;100270.53;10379703;28;20069;-67
2023/05/12 07:02:29;;;;;;;4.60;2.92;;;;;;;15.73;78.20;100264.47;10379322;28;20033;-68
2023/05/12 07:07:31;;;;;;;2.70;2.35;;;;;;;15.85;77.64;100270.91;10380930;28;20038;-67
2023/05/12 07:12:32;;;;;;;4.15;2.55;;;;;;;15.79;77.67;100270.94;10381481;28;20042;-66
2023/05/12 07:17:34;;;;;;;3.30;2.80;;;;;;;15.85;77.25;100278.22;10376881;28;20100;-67
2023/05/12 07:22:36;;;;;;;2.92;2.47;;;;;;;15.87;76.96;100281.53;10379412;28;20532;-67
2023/05/12 07:27:39;;;;;;;3.00;2.50;;;;;;;15.92;77.07;100286.34;10382761;28;20061;-65
2023/05/12 07:32:41;;;;;;;2.50;2.30;;;;;;;15.95;76.94;100285.91;10378106;28;20053;-67
2023/05/12 07:37:43;;;;;;;4.22;2.35;;;;;;;15.86;76.83;100290.75;10371352;28;20051;-66
2023/05/12 07:42:44;;;;;;;6.38;2.50;;;;;;;15.86;76.50;100288.03;10373698;28;20081;-68
2023/05/12 07:47:46;;;;;;;2.95;2.35;;;;;;;15.85;76.40;100286.34;10379283;28;20096;-66
2023/05/12 07:52:52;;;;;;;4.13;2.63;;;;;;;15.86;76.15;100282.59;10400054;28;20080;-67
2023/05/12 07:57:53;;;;;;;3.22;2.17;;;;;;;15.86;76.05;100285.31;10411771;28;20083;-67
2023/05/12 08:02:55;;;;;;;4.53;2.08;;;;;;;15.92;75.97;100286.34;10415961;28;20044;-67
2023/05/12 08:07:57;;;;;;;2.90;2.53;;;;;;;15.98;75.81;100280.91;10423221;28;20049;-67
2023/05/12 08:12:58;;;;;;;2.50;2.30;;;;;;;16.06;75.83;100282.53;10422333;28;20053;-65
2023/05/12 08:18:00;;;;;;;2.50;2.15;;;;;;;16.24;75.43;100288.09;10421490;28;20149;-67
2023/05/12 08:23:01;;;;;;;3.72;2.20;;;;;;;16.43;75.33;100282.81;10423656;28;20132;-67
2023/05/12 08:28:03;;;;;;;2.55;1.77;;;;;;;16.61;75.44;100268.53;10425065;28;20110;-67
2023/05/12 08:33:05;;;;;;;2.35;1.63;;;;;;;16.84;74.93;100284.25;10424078;28;20940;-67
2023/05/12 08:38:06;;;;;;;2.03;1.83;;;;;;;17.06;74.56;100276.59;10422696;28;20107;-67
2023/05/12 08:43:31;;;;;;;5.60;1.98;;;;;;;17.19;73.89;100279.22;10425083;28;20080;-67
2023/05/12 08:48:34;;;;;;;2.80;1.85;;;;;;;17.28;73.97;100277.06;10423739;28;20404;-69
2023/05/12 08:53:36;;;;;;;5.82;1.75;;;;;;;17.39;73.49;100275.50;10418334;28;20046;-66
2023/05/12 08:58:38;;;;;;;10.73;2.80;;;;;;;17.30;73.49;100280.38;10416577;28;20045;-66
2023/05/12 09:03:43;;;;;;;5.28;1.67;;;;;;;17.24;73.26;100281.28;10415352;28;20057;-66
2023/05/12 09:08:44;;;;;;;3.40;1.70;;;;;;;17.31;73.16;100283.94;10423457;28;20111;-66
2023/05/12 09:14:05;;;;;;;2.63;1.70;;;;;;;17.52;72.63;100274.56;10424435;28;20050;-65
2023/05/12 09:19:06;;;;;;;2.30;1.48;;;;;;;17.65;72.35;100277.13;10420048;28;20081;-66
2023/05/12 09:24:08;;;;;;;2.60;1.95;;;;;;;17.78;71.65;100281.59;10423061;28;20049;-66
2023/05/12 09:29:10;;;;;;;1.73;1.63;;;;;;;17.95;71.59;100273.69;10422671;28;20131;-66
2023/05/12 09:34:29;;;;;;;4.25;1.42;;;;;;;18.14;71.02;100264.47;10422497;28;20517;-67
2023/05/12 09:39:30;;;;;;;2.53;2.28;;;;;;;18.42;70.56;100277.53;10422111;28;20073;-66
2023/05/12 09:44:32;;;;;;;2.90;1.38;;;;;;;18.58;70.35;100258.88;10427179;28;20072;-67
2023/05/12 09:49:33;;;;;;;2.50;1.58;;;;;;;19.02;69.67;100254.91;10421962;28;20075;-67
2023/05/12 09:54:38;;;;;;;1.65;1.27;;;;;;;19.32;69.15;100256.72;10423663;28;20110;-67
2023/05/12 09:59:42;;;;;;;2.50;1.35;;;;;;;19.56;68.45;100259.44;10420746;28;20084;-67
2023/05/12 10:04:49;;;;;;;1.65;1.15;;;;;;;19.68;68.09;100264.88;10421554;28;20420;-66
2023/05/12 10:09:54;;;;;;;2.13;1.55;;;;;;;19.73;67.58;100284.16;10420225;28;20046;-66
2023/05/12 10:14:55;;;;;;;2.47;2.00;;;;;;;19.41;68.17;100270.81;10421484;28;20076;-65
2023/05/12 10:19:57;;;;;;;2.92;2.22;;;;;;;19.21;68.00;100269.28;10420973;28;20049;-66
2023/05/12 10:25:00;;;;;;;3.15;2.20;;;;;;;19.10;68.16;100270.09;10422836;28;20099;-64
2023/05/12 10:30:03;;;;;;;3.00;1.95;;;;;;;18.89;68.55;100278.78;10418124;28;20124;-66
2023/05/12 10:35:10;;;;;;;1.90;1.80;;;;;;;18.63;68.64;100281.63;10421776;28;20056;-65
2023/05/12 10:40:22;;;;;;;6.88;2.13;;;;;;;18.31;69.50;100280.19;10418338;28;20080;-66
2023/05/12 10:45:23;;;;;;;3.65;2.40;;;;;;;18.19;70.32;100283.69;10403293;28;20052;-65
2023/05/12 10:50:26;;;;;;;3.40;3.10;;;;;;;18.36;70.93;100278.44;10419226;28;20049;-65
2023/05/12 10:55:40;;;;;;;5.40;2.80;;;;;;;18.55;70.72;100278.41;10420031;28;20084;-65
2023/05/12 11:00:44;;;;;;;4.07;2.70;;;;;;;18.67;70.98;100273.00;10422240;28;20057;-66
2023/05/12 11:05:57;;;;;;;4.70;2.85;;;;;;;18.78;70.70;100283.94;10402294;28;20260;-66
2023/05/12 11:11:00;;;;;;;8.20;3.33;;;;;;;18.82;71.62;100277.00;10404195;28;20061;-67
2023/05/12 11:16:03;;;;;;;6.43;3.33;;;;;;;19.08;71.79;100279.56;10418527;28;20565;-66
2023/05/12 11:21:11;;;;;;;3.00;2.53;;;;;;;19.23;71.31;100282.66;10415455;28;20049;-66
2023/05/12 11:26:17;;;;;;;3.22;2.85;;;;;;;19.37;71.34;100288.72;10408372;28;20073;-67
2023/05/12 11:31:20;;;;;;;3.72;3.05;;;;;;;19.56;71.05;100293.00;10416984;28;20056;-66
2023/05/12 11:36:21;;;;;;;7.50;2.95;;;;;;;19.71;70.41;100294.44;10415143;28;20049;-66
2023/05/12 11:41:25;;;;;;;2.70;2.22;;;;;;;19.86;70.39;100294.78;10428108;28;20049;-65
2023/05/12 11:46:29;;;;;;;4.30;1.80;;;;;;;20.26;68.75;100296.75;10424302;28;20099;-65
2023/05/12 11:51:31;;;;;;;3.10;2.22;;;;;;;20.46;69.08;100295.47;10425235;28;20057;-66
2023/05/12 11:56:32;;;;;;;4.28;2.42;;;;;;;20.73;68.47;100307.50;10425298;28;20081;-66
2023/05/12 12:01:43;;;;;;;2.70;1.80;;;;;;;20.85;67.91;100302.00;10421972;28;20144;-65
2023/05/12 12:06:44;;;;;;;4.80;1.92;;;;;;;20.99;68.16;100314.31;10428377;28;20131;-66
2023/05/12 12:11:46;;;;;;;2.00;1.20;;;;;;;21.17;66.84;100305.03;10424551;28;20057;-67
2023/05/12 12:16:47;;;;;;;1.88;0.90;;;;;;;21.39;66.82;100312.50;10425613;28;20111;-67
2023/05/12 12:21:49;;;;;;;0.90;0.70;;;;;;;21.50;65.51;100308.88;10428270;28;20442;-66
2023/05/12 12:26:50;;;;;;;3.55;0.80;;;;;;;21.68;65.27;100309.69;10420885;28;20088;-66
2023/05/12 12:31:52;;;;;;;1.20;0.80;;;;;;;22.00;63.78;100307.16;10422290;28;20511;-68
2023/05/12 12:36:53;;;;;;;3.00;0.75;;;;;;;21.93;63.68;100311.97;10422295;28;20369;-68
2023/05/12 12:41:54;;;;;;;1.48;0.65;;;;;;;22.02;63.31;100315.09;10408845;28;20087;-66
2023/05/12 12:46:56;;;;;;;1.42;0.68;;;;;;;22.16;62.37;100308.19;10427693;28;20073;-67
2023/05/12 12:51:57;;;;;;;5.60;1.10;;;;;;;22.33;62.07;100308.16;10414470;28;20058;-66
2023/05/12 12:56:59;;;;;;;3.95;0.75;;;;;;;22.29;61.27;100309.75;10378851;28;20081;-65
2023/05/12 13:02:01;;;;;;;2.85;1.25;;;;;;;22.31;61.94;100313.88;10398906;28;20060;-67
2023/05/12 13:07:03;;;;;;;0.90;0.60;;;;;;;22.24;61.09;100309.66;10392457;28;20073;-67
2023/05/12 13:12:04;;;;;;;4.15;1.25;;;;;;;22.05;60.97;100309.94;10407218;28;20109;-66
2023/05/12 13:17:06;;;;;;;2.25;0.75;;;;;;;22.01;60.62;100307.97;10385838;28;20053;-66
2023/05/12 13:22:09;;;;;;;6.47;1.50;;;;;;;21.86;60.91;100303.09;10368704;28;20107;-65
2023/05/12 13:27:10;;;;;;;1.00;0.77;;;;;;;21.66;60.81;100306.38;10387593;28;20072;-65
2023/05/12 13:32:12;;;;;;;1.92;0.70;;;;;;;21.56;60.96;100302.44;10401397;28;20049;-65
2023/05/12 13:37:14;;;;;;;1.33;0.70;;;;;;;21.61;60.34;100300.84;10390192;28;20109;-66
2023/05/12 13:42:16;;;;;;;1.60;0.75;;;;;;;21.60;60.63;100310.94;10392931;28;20343;-66
2023/05/12 13:47:18;;;;;;;1.20;0.63;;;;;;;21.59;60.44;100312.03;10397078;28;20152;-67
2023/05/12 13:52:19;;;;;;;1.80;0.70;;;;;;;21.64;60.15;100312.09;10397001;28;20047;-67
2023/05/12 13:57:21;;;;;;;2.08;0.82;;;;;;;21.59;60.42;100307.38;10408255;28;20051;-60
2023/05/12 14:02:22;;;;;;;3.72;1.05;;;;;;;21.69;60.26;100297.69;10405063;28;20052;-60
2023/05/12 14:07:24;;;;;;;1.23;1.13;;;;;;;21.73;60.28;100316.06;10416440;28;20073;-59
2023/05/12 14:12:26;;;;;;;3.10;0.82;;;;;;;21.85;59.23;100306.94;10389491;28;20064;-60
2023/05/12 14:17:27;;;;;;;0.85;0.65;;;;;;;21.93;60.04;100312.81;10416836;28;20064;-60
2023/05/12 14:22:28;;;;;;;3.55;1.75;;;;;;;22.04;59.20;100307.47;10414159;28;20045;-60
2023/05/12 14:27:30;;;;;;;1.10;0.68;;;;;;;22.08;58.70;100319.59;10422642;28;20072;-60
2023/05/12 14:32:33;;;;;;;1.23;0.70;;;;;;;22.23;58.23;100314.28;10415562;28;20133;-59
2023/05/12 14:37:34;;;;;;;1.80;0.70;;;;;;;22.25;58.06;100308.59;10415702;28;20045;-60
2023/05/12 14:42:36;;;;;;;2.50;0.80;;;;;;;22.29;58.10;100317.97;10410457;28;20472;-60
2023/05/12 14:47:38;;;;;;;1.35;0.60;;;;;;;22.41;57.78;100307.69;10415440;28;20126;-60
2023/05/12 14:52:39;;;;;;;1.65;1.25;;;;;;;22.44;57.37;100312.66;10414746;28;20067;-59
2023/05/12 14:57:41;;;;;;;4.47;0.77;;;;;;;22.38;56.91;100310.97;10412223;28;20049;-60
2023/05/12 15:02:44;;;;;;;1.38;0.63;;;;;;;22.40;56.80;100313.44;10412261;28;20586;-60
2023/05/12 15:07:45;;;;;;;3.75;0.70;;;;;;;22.53;55.88;100318.50;10412969;28;20164;-60
2023/05/12 15:12:47;;;;;;;2.55;1.50;;;;;;;22.72;56.03;100308.88;10412166;28;20142;-60
2023/05/12 15:17:48;;;;;;;1.92;0.50;;;;;;;22.83;55.53;100319.94;10413219;28;20038;-59
2023/05/12 15:22:51;;;;;;;2.47;0.80;;;;;;;22.71;56.29;100326.41;10414289;28;20404;-60
2023/05/12 15:27:52;;;;;;;0.80;0.50;;;;;;;22.52;55.33;100320.44;10412667;28;20445;-58
2023/05/12 15:32:53;;;;;;;1.73;0.50;;;;;;;22.24;55.67;100318.72;10410227;28;20119;-58
2023/05/12 15:37:55;;;;;;;1.00;0.73;;;;;;;22.13;55.78;100328.66;10412380;28;20435;-57
2023/05/12 15:42:56;;;;;;;1.67;0.50;;;;;;;22.01;56.07;100327.16;10416510;28;20053;-58
2023/05/12 15:47:58;;;;;;;2.05;0.50;;;;;;;21.88;56.46;100326.44;10417205;28;20072;-58
2023/05/12 15:52:59;;;;;;;3.58;1.00;;;;;;;21.73;56.60;100348.91;10425802;28;20065;-64
2023/05/12 15:58:02;;;;;;;1.98;0.77;;;;;;;21.61;57.67;100350.09;10415095;28;20076;-64
2023/05/12 16:03:04;;;;;;;0.73;0.70;;;;;;;21.36;58.35;100343.91;10414715;28;20134;-64
2023/05/12 16:08:06;;;;;;;2.15;1.00;;;;;;;21.23;58.53;100357.06;10430863;28;20077;-65
2023/05/12 16:13:07;;;;;;;3.50;1.25;;;;;;;21.07;59.26;100339.56;10426996;28;20045;-66
2023/05/12 16:18:09;;;;;;;1.85;1.10;;;;;;;20.96;59.58;100347.56;10418742;28;20057;-66
2023/05/12 16:23:12;;;;;;;1.38;0.70;;;;;;;20.88;59.78;100338.97;10409521;28;20635;-65
2023/05/12 16:28:13;;;;;;;0.98;0.73;;;;;;;20.82;60.12;100351.69;10413832;28;20033;-64
2023/05/12 16:33:14;;;;;;;2.15;0.90;;;;;;;20.65;59.98;100351.63;10413273;28;20053;-64
2023/05/12 16:38:16;;;;;;;2.45;1.30;;;;;;;20.62;59.61;100349.38;10403639;28;20139;-65
2023/05/12 16:43:17;;;;;;;2.35;1.00;;;;;;;20.59;59.98;100352.59;10425987;28;20053;-65
2023/05/12 16:48:19;;;;;;;1.45;0.80;;;;;;;20.51;60.11;100352.94;10406347;28;20037;-65
2023/05/12 16:53:20;;;;;;;3.90;1.27;;;;;;;20.52;59.94;100360.09;10430814;28;20061;-65
2023/05/12 16:58:22;;;;;;;2.28;0.98;;;;;;;20.38;60.14;100365.81;10411003;28;20053;-64
2023/05/12 17:03:24;;;;;;;9.75;1.20;;;;;;;20.28;60.58;100373.78;10425061;28;20049;-66
2023/05/12 17:08:26;;;;;;;3.47;1.83;;;;;;;20.20;60.46;100385.88;10419448;28;20271;-66
2023/05/12 17:13:27;;;;;;;2.13;1.35;;;;;;;20.04;60.84;100389.31;10404446;28;20049;-65
2023/05/12 17:18:29;;;;;;;2.80;0.93;;;;;;;19.86;61.21;100386.72;10420582;28;20065;-65
2023/05/12 17:23:31;;;;;;;1.58;1.08;;;;;;;19.80;61.41;100393.94;10416974;28;20507;-65
2023/05/12 17:28:32;;;;;;;5.10;1.30;;;;;;;19.72;61.47;100394.31;10388473;28;20049;-66
2023/05/12 17:33:34;;;;;;;1.38;1.20;;;;;;;19.52;61.49;100389.97;10420211;28;20060;-66
2023/05/12 17:38:36;;;;;;;2.20;1.35;;;;;;;19.45;61.11;100381.06;10383544;28;20107;-65
2023/05/12 17:43:37;;;;;;;3.35;1.30;;;;;;;19.39;60.77;100382.84;10419880;28;20045;-66
2023/05/12 17:48:39;;;;;;;2.55;1.00;;;;;;;19.27;61.08;100379.22;10425201;28;20100;-64
2023/05/12 17:53:40;;;;;;;2.17;1.40;;;;;;;19.21;60.97;100391.91;10391691;28;20060;-64
2023/05/12 17:58:42;;;;;;;2.88;1.33;;;;;;;19.19;61.20;100394.03;10422417;28;20045;-64
2023/05/12 18:03:43;;;;;;;5.18;1.95;;;;;;;19.16;61.21;100396.41;10414863;28;20488;-65
2023/05/12 18:08:45;;;;;;;1.25;1.00;;;;;;;19.07;61.21;100403.22;10420211;28;20053;-63
2023/05/12 18:13:47;;;;;;;2.45;1.23;;;;;;;18.87;61.68;100406.22;10418583;28;20111;-62
2023/05/12 18:18:48;;;;;;;3.55;1.10;;;;;;;18.84;61.69;100426.59;10421885;28;20049;-63
2023/05/12 18:23:50;;;;;;;2.50;1.15;;;;;;;18.63;61.98;100427.84;10410644;28;20072;-62
2023/05/12 18:28:51;;;;;;;5.35;1.52;;;;;;;18.57;61.93;100434.19;10423527;28;20129;-62
2023/05/12 18:33:53;;;;;;;2.30;1.10;;;;;;;18.48;62.01;100425.47;10416320;28;20077;-63
2023/05/12 18:38:54;;;;;;;1.50;1.38;;;;;;;18.31;62.52;100433.44;10421069;28;20504;-63
2023/05/12 18:43:56;;;;;;;2.80;1.25;;;;;;;18.18;62.65;100437.09;10426953;28;20590;-63
2023/05/12 18:48:57;;;;;;;1.50;1.40;;;;;;;18.07;63.07;100445.16;10420928;28;20049;-62
2023/05/12 18:53:58;;;;;;;6.25;2.50;;;;;;;18.06;63.15;100460.66;10402766;28;20045;-64
2023/05/12 18:59:00;;;;;;;5.93;1.92;;;;;;;17.99;63.36;100458.00;10400637;28;20045;-63
2023/05/12 19:04:02;;;;;;;3.22;2.28;;;;;;;17.94;63.78;100468.72;10423152;28;20088;-64
2023/05/12 19:09:03;;;;;;;5.80;3.50;;;;;;;17.96;63.74;100454.88;10419834;28;20109;-64
2023/05/12 19:14:05;;;;;;;3.88;2.53;;;;;;;17.93;63.63;100461.63;10425639;28;20057;-59
2023/05/12 19:19:07;;;;;;;2.28;2.08;;;;;;;17.90;63.98;100469.38;10422488;28;20382;-59
2023/05/12 19:24:09;;;;;;;3.20;2.30;;;;;;;17.79;64.00;100477.16;10419936;28;20052;-59
2023/05/12 19:29:10;;;;;;;2.60;1.58;;;;;;;17.69;64.60;100489.56;10417099;28;20046;-59
2023/05/12 19:34:12;;;;;;;3.38;1.83;;;;;;;17.60;64.87;100494.44;10419626;28;20106;-59
2023/05/12 19:39:13;;;;;;;5.20;2.67;;;;;;;17.53;65.06;100486.31;10417825;28;20052;-59
2023/05/12 19:44:15;;;;;;;3.92;2.05;;;;;;;17.12;66.07;100486.75;10425250;28;20056;-60
2023/05/12 19:49:16;;;;;;;4.95;2.85;;;;;;;16.94;66.24;100495.59;10394873;28;20447;-59
2023/05/12 19:54:18;;;;;;;4.72;3.53;;;;;;;16.70;66.52;100488.97;10422293;28;20120;-59
2023/05/12 19:59:19;;;;;;;5.57;3.08;;;;;;;16.45;67.18;100492.38;10421465;28;20045;-59
2023/05/12 20:04:21;;;;;;;8.85;4.80;;;;;;;16.28;67.35;100491.13;10426755;28;20056;-59
2023/05/12 20:09:25;;;;;;;10.55;5.00;;;;;;;16.15;67.66;100497.38;10426003;28;20041;-59
2023/05/12 20:14:27;;;;;;;6.25;3.13;;;;;;;16.11;67.34;100504.28;10423152;28;20436;-59
2023/05/12 20:19:28;;;;;;;2.97;2.67;;;;;;;15.99;67.41;100504.88;10422813;28;20239;-59
2023/05/12 20:24:30;;;;;;;3.83;2.53;;;;;;;15.98;67.42;100502.41;10418591;28;20069;-59
2023/05/12 20:29:31;;;;;;;3.97;2.92;;;;;;;15.92;67.21;100514.91;10407096;28;20037;-59
2023/05/12 20:34:32;;;;;;;5.05;3.30;;;;;;;15.83;67.20;100505.28;10422120;28;20144;-59
2023/05/12 20:39:34;;;;;;;5.55;3.20;;;;;;;15.77;67.53;100508.84;10423908;28;20059;-59
2023/05/12 20:44:35;;;;;;;5.70;2.83;;;;;;;15.69;67.37;100500.88;10422616;28;20511;-59
2023/05/12 20:49:37;;;;;;;6.10;2.88;;;;;;;15.64;67.39;100506.91;10425228;28;20143;-59
2023/05/12 20:54:38;;;;;;;4.30;2.85;;;;;;;15.55;67.52;100503.53;10421098;28;20111;-59
2023/05/12 20:59:40;;;;;;;6.68;2.72;;;;;;;15.55;67.63;100508.13;10422513;28;20076;-59
2023/05/12 21:04:41;;;;;;;7.63;3.45;;;;;;;15.50;67.55;100506.06;10408097;28;20445;-59
2023/05/12 21:09:42;;;;;;;4.43;2.75;;;;;;;15.30;67.95;100513.25;10425569;28;20091;-57
2023/05/12 21:14:44;;;;;;;8.93;3.15;;;;;;;15.12;68.44;100514.66;10405875;28;20052;-57
2023/05/12 21:19:45;;;;;;;6.18;2.78;;;;;;;15.07;68.27;100520.69;10425192;28;20125;-58
2023/05/12 21:24:47;;;;;;;4.57;3.03;;;;;;;15.09;68.35;100520.50;10425203;28;20077;-57
2023/05/12 21:29:48;;;;;;;6.85;3.45;;;;;;;15.03;68.41;100519.41;10417494;28;20053;-57
2023/05/12 21:34:50;;;;;;;5.43;3.60;;;;;;;14.99;68.56;100520.03;10409840;28;20056;-57
2023/05/12 21:39:51;;;;;;;9.00;4.65;;;;;;;14.93;68.94;100527.06;10419930;28;20099;-58
2023/05/12 21:44:53;;;;;;;6.65;3.15;;;;;;;14.85;68.95;100524.53;10418448;28;20103;-58
2023/05/12 21:49:55;;;;;;;6.35;3.45;;;;;;;14.78;69.24;100529.91;10424727;28;20709;-57
2023/05/12 21:54:57;;;;;;;5.75;3.72;;;;;;;14.71;69.40;100534.44;10407902;28;20053;-56
2023/05/12 22:00:02;;;;;;;5.97;3.40;;;;;;;14.64;69.42;100534.38;10420007;28;20072;-57
2023/05/12 22:05:04;;;;;;;7.00;4.50;;;;;;;14.47;69.63;100539.25;10427825;28;20107;-58
2023/05/12 22:10:06;;;;;;;5.03;3.50;;;;;;;14.35;69.88;100538.09;10420314;28;20075;-58
2023/05/12 22:15:08;;;;;;;8.50;3.53;;;;;;;14.01;70.60;100544.25;10415816;28;20128;-57
2023/05/12 22:20:10;;;;;;;3.30;2.83;;;;;;;14.01;70.43;100541.56;10417852;28;20077;-55
2023/05/12 22:25:11;;;;;;;5.50;3.53;;;;;;;14.04;70.18;100546.56;10418114;28;20073;-55
2023/05/12 22:30:13;;;;;;;5.18;3.58;;;;;;;14.05;70.10;100551.78;10416446;28;20477;-59
2023/05/12 22:35:15;;;;;;;5.00;3.28;;;;;;;13.97;70.04;100560.03;10404010;28;20053;-59
2023/05/12 22:40:16;;;;;;;5.30;3.50;;;;;;;13.98;70.04;100575.22;10417923;28;20086;-56
2023/05/12 22:45:18;;;;;;;7.22;3.25;;;;;;;13.92;70.22;100576.00;10402737;28;20065;-56
2023/05/12 22:50:19;;;;;;;5.43;3.58;;;;;;;13.87;70.31;100570.31;10422604;28;20076;-58
2023/05/12 22:55:29;;;;;;;5.50;4.40;;;;;;;13.84;70.47;100568.00;10422660;28;20132;-55
2023/05/12 23:00:30;;;;;;;4.90;4.10;;;;;;;13.85;70.71;100572.38;10418495;28;20675;-58
2023/05/12 23:05:32;;;;;;;7.60;3.65;;;;;;;13.85;70.56;100577.78;10421418;28;20052;-58
2023/05/12 23:10:33;;;;;;;8.15;4.80;;;;;;;13.94;70.35;100597.41;10420030;28;20080;-58